sensor_id;sensor_type;location;lat;lon;timestamp;temperature;humidity
62583;DHT22;48641;51.676;5.808;2023-05-10T00:01:23;18.80;67.30
62583;DHT22;48641;51.676;5.808;2023-05-10T00:03:48;18.90;67.40
62583;DHT22;48641;51.676;5.808;2023-05-10T00:06:14;18.90;67.40
62583;DHT22;48641;51.676;5.808;2023-05-10T00:08:40;18.90;67.40
62583;DHT22;48641;51.676;5.808;2023-05-10T00:11:05;18.90;67.40
62583;DHT22;48641;51.676;5.808;2023-05-10T00:13:31;18.90;67.40
62583;DHT22;48641;51.676;5.808;2023-05-10T00:15:57;18.90;67.40
62583;DHT22;48641;51.676;5.808;2023-05-10T00:18:23;18.90;67.40
62583;DHT22;48641;51.676;5.808;2023-05-10T00:20:48;18.90;67.30
62583;DHT22;48641;51.676;5.808;2023-05-10T00:23:14;18.90;67.30
62583;DHT22;48641;51.676;5.808;2023-05-10T00:25:40;18.90;67.40
62583;DHT22;48641;51.676;5.808;2023-05-10T00:28:05;18.90;67.30
62583;DHT22;48641;51.676;5.808;2023-05-10T00:30:31;18.90;67.30
62583;DHT22;48641;51.676;5.808;2023-05-10T00:32:56;18.80;67.30
62583;DHT22;48641;51.676;5.808;2023-05-10T00:35:22;18.80;67.30
62583;DHT22;48641;51.676;5.808;2023-05-10T00:37:48;18.80;67.30
62583;DHT22;48641;51.676;5.808;2023-05-10T00:40:13;18.80;67.30
62583;DHT22;48641;51.676;5.808;2023-05-10T00:42:39;18.80;67.30
62583;DHT22;48641;51.676;5.808;2023-05-10T00:45:06;18.80;67.30
62583;DHT22;48641;51.676;5.808;2023-05-10T00:47:32;18.80;67.30
62583;DHT22;48641;51.676;5.808;2023-05-10T00:49:58;18.80;67.30
62583;DHT22;48641;51.676;5.808;2023-05-10T00:52:26;18.80;67.30
62583;DHT22;48641;51.676;5.808;2023-05-10T00:54:52;18.80;67.30
62583;DHT22;48641;51.676;5.808;2023-05-10T00:57:19;18.80;67.30
62583;DHT22;48641;51.676;5.808;2023-05-10T00:59:44;18.80;67.20
62583;DHT22;48641;51.676;5.808;2023-05-10T01:02:11;18.80;67.30
62583;DHT22;48641;51.676;5.808;2023-05-10T01:04:37;18.80;67.20
62583;DHT22;48641;51.676;5.808;2023-05-10T01:07:03;18.80;67.20
62583;DHT22;48641;51.676;5.808;2023-05-10T01:09:29;18.80;67.20
62583;DHT22;48641;51.676;5.808;2023-05-10T01:11:55;18.80;67.20
62583;DHT22;48641;51.676;5.808;2023-05-10T01:14:21;18.80;67.30
62583;DHT22;48641;51.676;5.808;2023-05-10T01:16:48;18.80;67.30
62583;DHT22;48641;51.676;5.808;2023-05-10T01:19:23;18.80;67.30
62583;DHT22;48641;51.676;5.808;2023-05-10T01:21:53;18.80;67.30
62583;DHT22;48641;51.676;5.808;2023-05-10T01:27:42;18.80;67.20
62583;DHT22;48641;51.676;5.808;2023-05-10T01:33:19;18.80;67.30
62583;DHT22;48641;51.676;5.808;2023-05-10T01:36:11;18.70;67.40
62583;DHT22;48641;51.676;5.808;2023-05-10T01:38:50;18.70;67.30
62583;DHT22;48641;51.676;5.808;2023-05-10T01:41:18;18.70;67.30
62583;DHT22;48641;51.676;5.808;2023-05-10T01:43:57;18.70;67.40
62583;DHT22;48641;51.676;5.808;2023-05-10T01:46:28;18.70;67.40
62583;DHT22;48641;51.676;5.808;2023-05-10T01:48:58;18.70;67.40
62583;DHT22;48641;51.676;5.808;2023-05-10T01:51:29;18.70;67.50
62583;DHT22;48641;51.676;5.808;2023-05-10T01:54:01;18.70;67.40
62583;DHT22;48641;51.676;5.808;2023-05-10T01:56:29;18.70;67.40
62583;DHT22;48641;51.676;5.808;2023-05-10T01:58:56;18.70;67.40
62583;DHT22;48641;51.676;5.808;2023-05-10T02:01:22;18.70;67.40
62583;DHT22;48641;51.676;5.808;2023-05-10T02:03:49;18.70;67.40
62583;DHT22;48641;51.676;5.808;2023-05-10T02:06:16;18.70;67.30
62583;DHT22;48641;51.676;5.808;2023-05-10T02:08:45;18.70;67.30
62583;DHT22;48641;51.676;5.808;2023-05-10T02:11:13;18.70;67.30
62583;DHT22;48641;51.676;5.808;2023-05-10T02:13:39;18.70;67.30
62583;DHT22;48641;51.676;5.808;2023-05-10T02:16:06;18.70;67.30
62583;DHT22;48641;51.676;5.808;2023-05-10T02:18:33;18.70;67.30
62583;DHT22;48641;51.676;5.808;2023-05-10T02:21:01;18.70;67.30
62583;DHT22;48641;51.676;5.808;2023-05-10T02:23:28;18.70;67.30
62583;DHT22;48641;51.676;5.808;2023-05-10T02:25:56;18.70;67.30
62583;DHT22;48641;51.676;5.808;2023-05-10T02:28:23;18.70;67.30
62583;DHT22;48641;51.676;5.808;2023-05-10T02:30:51;18.70;67.30
62583;DHT22;48641;51.676;5.808;2023-05-10T02:33:18;18.70;67.30
62583;DHT22;48641;51.676;5.808;2023-05-10T02:35:46;18.70;67.30
62583;DHT22;48641;51.676;5.808;2023-05-10T02:38:13;18.70;67.30
62583;DHT22;48641;51.676;5.808;2023-05-10T05:39:39;18.50;67.60
62583;DHT22;48641;51.676;5.808;2023-05-10T05:42:05;18.50;67.60
62583;DHT22;48641;51.676;5.808;2023-05-10T05:44:30;18.50;67.50
62583;DHT22;48641;51.676;5.808;2023-05-10T05:46:56;18.50;67.50
62583;DHT22;48641;51.676;5.808;2023-05-10T05:49:22;18.50;67.50
62583;DHT22;48641;51.676;5.808;2023-05-10T05:51:47;18.50;67.60
62583;DHT22;48641;51.676;5.808;2023-05-10T05:54:14;18.50;67.50
62583;DHT22;48641;51.676;5.808;2023-05-10T05:56:40;18.50;67.50
62583;DHT22;48641;51.676;5.808;2023-05-10T05:59:06;18.50;67.40
62583;DHT22;48641;51.676;5.808;2023-05-10T06:01:31;18.50;67.40
62583;DHT22;48641;51.676;5.808;2023-05-10T06:03:57;18.50;67.40
62583;DHT22;48641;51.676;5.808;2023-05-10T06:06:22;18.50;67.40
62583;DHT22;48641;51.676;5.808;2023-05-10T06:08:48;18.50;67.40
62583;DHT22;48641;51.676;5.808;2023-05-10T06:11:13;18.50;67.40
62583;DHT22;48641;51.676;5.808;2023-05-10T06:13:39;18.50;67.40
62583;DHT22;48641;51.676;5.808;2023-05-10T06:16:05;18.50;67.40
62583;DHT22;48641;51.676;5.808;2023-05-10T06:18:31;18.50;67.40
62583;DHT22;48641;51.676;5.808;2023-05-10T06:20:56;18.50;67.30
62583;DHT22;48641;51.676;5.808;2023-05-10T06:23:22;18.50;67.30
62583;DHT22;48641;51.676;5.808;2023-05-10T06:25:48;18.50;67.40
62583;DHT22;48641;51.676;5.808;2023-05-10T06:28:14;18.50;67.30
62583;DHT22;48641;51.676;5.808;2023-05-10T06:30:39;18.50;67.30
62583;DHT22;48641;51.676;5.808;2023-05-10T06:33:05;18.50;67.30
62583;DHT22;48641;51.676;5.808;2023-05-10T06:35:30;18.50;67.30
62583;DHT22;48641;51.676;5.808;2023-05-10T06:37:58;18.50;67.30
62583;DHT22;48641;51.676;5.808;2023-05-10T06:40:24;18.40;67.30
62583;DHT22;48641;51.676;5.808;2023-05-10T06:42:50;18.50;67.30
62583;DHT22;48641;51.676;5.808;2023-05-10T06:45:16;18.50;67.30
62583;DHT22;48641;51.676;5.808;2023-05-10T06:47:41;18.40;67.20
62583;DHT22;48641;51.676;5.808;2023-05-10T06:50:10;18.40;67.30
62583;DHT22;48641;51.676;5.808;2023-05-10T06:52:39;18.50;67.30
62583;DHT22;48641;51.676;5.808;2023-05-10T06:55:05;18.50;67.30
62583;DHT22;48641;51.676;5.808;2023-05-10T06:57:31;18.40;67.30
62583;DHT22;48641;51.676;5.808;2023-05-10T06:59:58;18.40;67.30
62583;DHT22;48641;51.676;5.808;2023-05-10T07:02:23;18.40;67.30
62583;DHT22;48641;51.676;5.808;2023-05-10T07:04:49;18.40;67.30
62583;DHT22;48641;51.676;5.808;2023-05-10T07:07:15;18.40;67.30
62583;DHT22;48641;51.676;5.808;2023-05-10T07:09:41;18.40;67.20
62583;DHT22;48641;51.676;5.808;2023-05-10T07:12:07;18.50;67.30
62583;DHT22;48641;51.676;5.808;2023-05-10T07:14:32;18.40;67.30
62583;DHT22;48641;51.676;5.808;2023-05-10T07:16:58;18.40;67.30
62583;DHT22;48641;51.676;5.808;2023-05-10T07:19:23;18.50;67.30
62583;DHT22;48641;51.676;5.808;2023-05-10T07:21:49;18.40;67.30
62583;DHT22;48641;51.676;5.808;2023-05-10T07:24:16;18.40;67.40
62583;DHT22;48641;51.676;5.808;2023-05-10T07:26:41;18.40;67.40
62583;DHT22;48641;51.676;5.808;2023-05-10T07:29:07;18.40;67.30
62583;DHT22;48641;51.676;5.808;2023-05-10T07:31:32;18.40;67.30
62583;DHT22;48641;51.676;5.808;2023-05-10T07:33:58;18.40;67.30
62583;DHT22;48641;51.676;5.808;2023-05-10T07:36:24;18.40;67.30
62583;DHT22;48641;51.676;5.808;2023-05-10T07:38:49;18.40;67.30
62583;DHT22;48641;51.676;5.808;2023-05-10T07:41:18;18.40;67.30
62583;DHT22;48641;51.676;5.808;2023-05-10T07:43:44;18.40;67.30
62583;DHT22;48641;51.676;5.808;2023-05-10T07:46:09;18.40;67.40
62583;DHT22;48641;51.676;5.808;2023-05-10T07:48:36;18.40;67.40
62583;DHT22;48641;51.676;5.808;2023-05-10T07:51:02;18.50;67.50
62583;DHT22;48641;51.676;5.808;2023-05-10T07:53:28;18.40;67.40
62583;DHT22;48641;51.676;5.808;2023-05-10T07:55:57;18.40;67.50
62583;DHT22;48641;51.676;5.808;2023-05-10T07:58:24;18.40;67.50
62583;DHT22;48641;51.676;5.808;2023-05-10T08:00:50;18.40;67.50
62583;DHT22;48641;51.676;5.808;2023-05-10T08:03:16;18.40;67.60
62583;DHT22;48641;51.676;5.808;2023-05-10T08:05:41;18.40;67.60
62583;DHT22;48641;51.676;5.808;2023-05-10T08:08:07;18.40;67.50
62583;DHT22;48641;51.676;5.808;2023-05-10T08:10:32;18.40;67.60
62583;DHT22;48641;51.676;5.808;2023-05-10T08:12:58;18.40;67.50
62583;DHT22;48641;51.676;5.808;2023-05-10T08:15:24;18.40;67.60
62583;DHT22;48641;51.676;5.808;2023-05-10T08:17:51;18.40;67.50
62583;DHT22;48641;51.676;5.808;2023-05-10T08:20:17;18.40;67.40
62583;DHT22;48641;51.676;5.808;2023-05-10T08:22:45;18.40;67.50
62583;DHT22;48641;51.676;5.808;2023-05-10T08:25:10;18.40;67.50
62583;DHT22;48641;51.676;5.808;2023-05-10T08:27:36;18.40;67.60
62583;DHT22;48641;51.676;5.808;2023-05-10T08:30:02;18.40;67.60
62583;DHT22;48641;51.676;5.808;2023-05-10T08:32:27;18.40;67.60
62583;DHT22;48641;51.676;5.808;2023-05-10T08:34:53;18.40;67.60
62583;DHT22;48641;51.676;5.808;2023-05-10T08:37:18;18.40;67.70
62583;DHT22;48641;51.676;5.808;2023-05-10T08:39:44;18.40;67.60
62583;DHT22;48641;51.676;5.808;2023-05-10T08:42:16;18.40;67.60
62583;DHT22;48641;51.676;5.808;2023-05-10T08:44:45;18.40;67.60
62583;DHT22;48641;51.676;5.808;2023-05-10T08:47:15;18.50;67.70
62583;DHT22;48641;51.676;5.808;2023-05-10T08:49:41;18.40;67.70
62583;DHT22;48641;51.676;5.808;2023-05-10T08:52:10;18.40;67.70
62583;DHT22;48641;51.676;5.808;2023-05-10T08:54:38;18.40;67.60
62583;DHT22;48641;51.676;5.808;2023-05-10T08:57:04;18.40;67.60
62583;DHT22;48641;51.676;5.808;2023-05-10T08:59:30;18.50;67.60
62583;DHT22;48641;51.676;5.808;2023-05-10T09:01:59;18.50;67.60
62583;DHT22;48641;51.676;5.808;2023-05-10T09:04:25;18.50;67.60
62583;DHT22;48641;51.676;5.808;2023-05-10T09:06:51;18.40;67.60
62583;DHT22;48641;51.676;5.808;2023-05-10T09:09:17;18.50;67.70
62583;DHT22;48641;51.676;5.808;2023-05-10T09:11:43;18.50;67.70
62583;DHT22;48641;51.676;5.808;2023-05-10T09:14:10;18.50;67.70
62583;DHT22;48641;51.676;5.808;2023-05-10T09:16:37;18.50;67.70
62583;DHT22;48641;51.676;5.808;2023-05-10T09:19:03;18.50;67.70
62583;DHT22;48641;51.676;5.808;2023-05-10T09:21:29;18.50;67.60
62583;DHT22;48641;51.676;5.808;2023-05-10T09:23:55;18.50;68.60
62583;DHT22;48641;51.676;5.808;2023-05-10T09:26:24;18.50;67.60
62583;DHT22;48641;51.676;5.808;2023-05-10T09:28:58;18.50;67.70
62583;DHT22;48641;51.676;5.808;2023-05-10T09:31:24;18.50;67.90
62583;DHT22;48641;51.676;5.808;2023-05-10T09:33:53;18.50;68.00
62583;DHT22;48641;51.676;5.808;2023-05-10T09:36:18;18.50;68.00
62583;DHT22;48641;51.676;5.808;2023-05-10T09:38:52;18.50;67.90
62583;DHT22;48641;51.676;5.808;2023-05-10T09:41:24;18.50;67.90
62583;DHT22;48641;51.676;5.808;2023-05-10T09:43:50;18.50;67.90
62583;DHT22;48641;51.676;5.808;2023-05-10T09:46:20;18.50;67.90
62583;DHT22;48641;51.676;5.808;2023-05-10T09:48:46;18.50;67.90
62583;DHT22;48641;51.676;5.808;2023-05-10T09:51:23;18.50;67.90
62583;DHT22;48641;51.676;5.808;2023-05-10T09:54:15;18.50;67.80
62583;DHT22;48641;51.676;5.808;2023-05-10T09:56:41;18.50;67.80
62583;DHT22;48641;51.676;5.808;2023-05-10T09:59:10;18.50;67.90
62583;DHT22;48641;51.676;5.808;2023-05-10T10:01:37;18.50;67.90
62583;DHT22;48641;51.676;5.808;2023-05-10T10:04:04;18.50;67.90
62583;DHT22;48641;51.676;5.808;2023-05-10T10:06:35;18.50;67.90
62583;DHT22;48641;51.676;5.808;2023-05-10T10:09:02;18.50;68.00
62583;DHT22;48641;51.676;5.808;2023-05-10T10:11:28;18.50;68.00
62583;DHT22;48641;51.676;5.808;2023-05-10T10:13:54;18.50;68.90
62583;DHT22;48641;51.676;5.808;2023-05-10T10:16:20;18.50;68.00
62583;DHT22;48641;51.676;5.808;2023-05-10T10:18:47;18.50;68.00
62583;DHT22;48641;51.676;5.808;2023-05-10T10:21:13;18.50;67.90
62583;DHT22;48641;51.676;5.808;2023-05-10T10:23:41;18.50;67.90
62583;DHT22;48641;51.676;5.808;2023-05-10T10:26:07;18.50;67.90
62583;DHT22;48641;51.676;5.808;2023-05-10T10:31:25;18.50;67.90
62583;DHT22;48641;51.676;5.808;2023-05-10T10:33:59;18.50;67.90
62583;DHT22;48641;51.676;5.808;2023-05-10T10:36:25;18.50;68.00
62583;DHT22;48641;51.676;5.808;2023-05-10T10:41:39;18.40;68.00
62583;DHT22;48641;51.676;5.808;2023-05-10T10:47:03;18.50;68.00
62583;DHT22;48641;51.676;5.808;2023-05-10T10:52:22;18.40;68.10
62583;DHT22;48641;51.676;5.808;2023-05-10T10:57:25;18.40;68.00
62583;DHT22;48641;51.676;5.808;2023-05-10T10:59:58;18.40;68.10
62583;DHT22;48641;51.676;5.808;2023-05-10T11:07:55;18.40;68.10
62583;DHT22;48641;51.676;5.808;2023-05-10T11:10:22;18.30;68.40
62583;DHT22;48641;51.676;5.808;2023-05-10T11:12:52;18.30;68.30
62583;DHT22;48641;51.676;5.808;2023-05-10T11:15:19;18.30;68.30
62583;DHT22;48641;51.676;5.808;2023-05-10T11:17:45;18.30;68.30
62583;DHT22;48641;51.676;5.808;2023-05-10T11:20:17;18.40;68.30
62583;DHT22;48641;51.676;5.808;2023-05-10T11:22:52;18.40;68.30
62583;DHT22;48641;51.676;5.808;2023-05-10T11:25:18;18.40;68.30
62583;DHT22;48641;51.676;5.808;2023-05-10T11:27:44;18.40;69.20
62583;DHT22;48641;51.676;5.808;2023-05-10T11:30:11;18.40;68.20
62583;DHT22;48641;51.676;5.808;2023-05-10T11:32:38;18.40;68.20
62583;DHT22;48641;51.676;5.808;2023-05-10T11:35:08;18.40;68.20
62583;DHT22;48641;51.676;5.808;2023-05-10T11:37:34;18.40;68.10
62583;DHT22;48641;51.676;5.808;2023-05-10T11:40:00;18.40;68.10
62583;DHT22;48641;51.676;5.808;2023-05-10T11:42:27;18.40;68.10
62583;DHT22;48641;51.676;5.808;2023-05-10T11:44:53;18.40;68.10
62583;DHT22;48641;51.676;5.808;2023-05-10T11:47:18;18.40;68.10
62583;DHT22;48641;51.676;5.808;2023-05-10T11:49:45;18.40;68.10
62583;DHT22;48641;51.676;5.808;2023-05-10T11:52:11;18.40;68.10
62583;DHT22;48641;51.676;5.808;2023-05-10T11:54:36;18.40;68.10
62583;DHT22;48641;51.676;5.808;2023-05-10T11:57:03;18.40;68.00
62583;DHT22;48641;51.676;5.808;2023-05-10T11:59:28;18.40;68.00
62583;DHT22;48641;51.676;5.808;2023-05-10T12:01:54;18.40;68.00
62583;DHT22;48641;51.676;5.808;2023-05-10T12:04:20;18.40;68.00
62583;DHT22;48641;51.676;5.808;2023-05-10T12:06:46;18.40;68.00
62583;DHT22;48641;51.676;5.808;2023-05-10T12:09:12;18.40;68.00
62583;DHT22;48641;51.676;5.808;2023-05-10T12:11:39;18.40;68.00
62583;DHT22;48641;51.676;5.808;2023-05-10T12:14:05;18.40;68.00
62583;DHT22;48641;51.676;5.808;2023-05-10T12:16:32;18.40;68.10
62583;DHT22;48641;51.676;5.808;2023-05-10T12:18:59;18.40;68.10
62583;DHT22;48641;51.676;5.808;2023-05-10T12:21:26;18.40;68.20
62583;DHT22;48641;51.676;5.808;2023-05-10T12:23:54;18.40;68.10
62583;DHT22;48641;51.676;5.808;2023-05-10T12:26:28;18.40;68.20
62583;DHT22;48641;51.676;5.808;2023-05-10T12:28:54;18.40;68.20
62583;DHT22;48641;51.676;5.808;2023-05-10T12:31:20;18.40;68.20
62583;DHT22;48641;51.676;5.808;2023-05-10T12:36:15;18.40;68.20
62583;DHT22;48641;51.676;5.808;2023-05-10T12:38:44;18.40;68.20
62583;DHT22;48641;51.676;5.808;2023-05-10T12:41:15;18.40;68.20
62583;DHT22;48641;51.676;5.808;2023-05-10T12:43:41;18.40;68.20
62583;DHT22;48641;51.676;5.808;2023-05-10T12:48:36;18.40;68.10
62583;DHT22;48641;51.676;5.808;2023-05-10T12:51:03;18.40;68.10
62583;DHT22;48641;51.676;5.808;2023-05-10T12:53:28;18.40;68.20
62583;DHT22;48641;51.676;5.808;2023-05-10T12:55:54;18.40;68.10
62583;DHT22;48641;51.676;5.808;2023-05-10T12:58:20;18.40;68.10
62583;DHT22;48641;51.676;5.808;2023-05-10T13:00:46;18.40;68.10
62583;DHT22;48641;51.676;5.808;2023-05-10T13:03:11;18.40;68.10
62583;DHT22;48641;51.676;5.808;2023-05-10T13:05:37;18.40;68.10
62583;DHT22;48641;51.676;5.808;2023-05-10T13:08:03;18.40;68.10
62583;DHT22;48641;51.676;5.808;2023-05-10T13:10:32;18.40;68.10
62583;DHT22;48641;51.676;5.808;2023-05-10T13:12:58;18.40;68.20
62583;DHT22;48641;51.676;5.808;2023-05-10T13:15:25;18.40;68.10
62583;DHT22;48641;51.676;5.808;2023-05-10T13:17:51;18.40;68.50
62583;DHT22;48641;51.676;5.808;2023-05-10T13:20:16;18.40;68.90
62583;DHT22;48641;51.676;5.808;2023-05-10T13:22:45;18.40;68.90
62583;DHT22;48641;51.676;5.808;2023-05-10T13:25:11;18.40;69.00
62583;DHT22;48641;51.676;5.808;2023-05-10T13:27:38;18.40;68.90
62583;DHT22;48641;51.676;5.808;2023-05-10T13:30:05;18.40;68.90
62583;DHT22;48641;51.676;5.808;2023-05-10T13:32:30;18.40;68.80
62583;DHT22;48641;51.676;5.808;2023-05-10T13:34:56;18.40;68.80
62583;DHT22;48641;51.676;5.808;2023-05-10T13:37:22;18.40;68.70
62583;DHT22;48641;51.676;5.808;2023-05-10T13:39:48;18.40;68.80
62583;DHT22;48641;51.676;5.808;2023-05-10T13:42:14;18.40;68.80
62583;DHT22;48641;51.676;5.808;2023-05-10T13:44:39;18.40;68.70
62583;DHT22;48641;51.676;5.808;2023-05-10T13:47:05;18.40;68.70
62583;DHT22;48641;51.676;5.808;2023-05-10T13:49:31;18.40;68.80
62583;DHT22;48641;51.676;5.808;2023-05-10T13:51:57;18.40;68.80
62583;DHT22;48641;51.676;5.808;2023-05-10T13:54:23;18.40;68.80
62583;DHT22;48641;51.676;5.808;2023-05-10T13:56:49;18.40;68.80
62583;DHT22;48641;51.676;5.808;2023-05-10T13:59:15;18.40;68.80
62583;DHT22;48641;51.676;5.808;2023-05-10T14:01:41;18.40;68.70
62583;DHT22;48641;51.676;5.808;2023-05-10T14:04:08;18.40;68.70
62583;DHT22;48641;51.676;5.808;2023-05-10T14:06:36;18.40;68.70
62583;DHT22;48641;51.676;5.808;2023-05-10T14:09:02;18.40;68.70
62583;DHT22;48641;51.676;5.808;2023-05-10T14:11:28;18.40;68.70
62583;DHT22;48641;51.676;5.808;2023-05-10T14:13:53;18.50;68.80
62583;DHT22;48641;51.676;5.808;2023-05-10T14:16:19;18.40;68.70
62583;DHT22;48641;51.676;5.808;2023-05-10T14:18:45;18.40;68.70
62583;DHT22;48641;51.676;5.808;2023-05-10T14:21:11;18.40;68.60
62583;DHT22;48641;51.676;5.808;2023-05-10T14:23:37;18.40;68.60
62583;DHT22;48641;51.676;5.808;2023-05-10T14:26:03;18.40;68.50
62583;DHT22;48641;51.676;5.808;2023-05-10T14:28:28;18.50;68.50
62583;DHT22;48641;51.676;5.808;2023-05-10T14:30:54;18.40;68.40
62583;DHT22;48641;51.676;5.808;2023-05-10T14:33:19;18.50;68.50
62583;DHT22;48641;51.676;5.808;2023-05-10T14:35:46;18.50;68.50
62583;DHT22;48641;51.676;5.808;2023-05-10T14:38:13;18.50;68.50
62583;DHT22;48641;51.676;5.808;2023-05-10T14:40:38;18.50;68.50
62583;DHT22;48641;51.676;5.808;2023-05-10T14:43:04;18.50;68.40
62583;DHT22;48641;51.676;5.808;2023-05-10T14:45:30;18.50;68.40
62583;DHT22;48641;51.676;5.808;2023-05-10T14:47:56;18.50;68.40
62583;DHT22;48641;51.676;5.808;2023-05-10T14:50:22;18.50;68.40
62583;DHT22;48641;51.676;5.808;2023-05-10T14:52:48;18.50;68.40
62583;DHT22;48641;51.676;5.808;2023-05-10T14:55:14;18.50;68.30
62583;DHT22;48641;51.676;5.808;2023-05-10T14:57:40;18.50;68.30
62583;DHT22;48641;51.676;5.808;2023-05-10T15:00:06;18.50;68.70
62583;DHT22;48641;51.676;5.808;2023-05-10T15:02:32;18.50;69.20
62583;DHT22;48641;51.676;5.808;2023-05-10T15:04:57;18.60;68.90
62583;DHT22;48641;51.676;5.808;2023-05-10T15:07:23;18.60;68.70
62583;DHT22;48641;51.676;5.808;2023-05-10T15:09:50;18.50;68.60
62583;DHT22;48641;51.676;5.808;2023-05-10T15:12:17;18.50;68.50
62583;DHT22;48641;51.676;5.808;2023-05-10T15:14:42;18.60;68.60
62583;DHT22;48641;51.676;5.808;2023-05-10T15:17:08;18.60;68.50
62583;DHT22;48641;51.676;5.808;2023-05-10T15:19:34;18.60;68.40
62583;DHT22;48641;51.676;5.808;2023-05-10T15:21:59;18.60;68.50
62583;DHT22;48641;51.676;5.808;2023-05-10T15:24:25;18.60;68.60
62583;DHT22;48641;51.676;5.808;2023-05-10T15:26:51;18.50;69.40
62583;DHT22;48641;51.676;5.808;2023-05-10T15:29:16;18.60;69.20
62583;DHT22;48641;51.676;5.808;2023-05-10T15:31:51;18.60;68.90
62583;DHT22;48641;51.676;5.808;2023-05-10T15:34:17;18.60;68.80
62583;DHT22;48641;51.676;5.808;2023-05-10T15:36:44;18.60;68.80
62583;DHT22;48641;51.676;5.808;2023-05-10T15:39:10;18.60;69.70
62583;DHT22;48641;51.676;5.808;2023-05-10T15:41:37;18.60;68.70
62583;DHT22;48641;51.676;5.808;2023-05-10T15:44:03;18.60;68.60
62583;DHT22;48641;51.676;5.808;2023-05-10T15:46:29;18.60;68.60
62583;DHT22;48641;51.676;5.808;2023-05-10T15:48:55;18.60;68.50
62583;DHT22;48641;51.676;5.808;2023-05-10T15:51:20;18.60;68.50
62583;DHT22;48641;51.676;5.808;2023-05-10T15:53:46;18.60;68.50
62583;DHT22;48641;51.676;5.808;2023-05-10T15:56:12;18.60;68.50
62583;DHT22;48641;51.676;5.808;2023-05-10T15:58:39;18.60;68.50
62583;DHT22;48641;51.676;5.808;2023-05-10T16:01:04;18.60;68.50
62583;DHT22;48641;51.676;5.808;2023-05-10T16:03:30;18.50;68.40
62583;DHT22;48641;51.676;5.808;2023-05-10T16:05:56;18.60;68.50
62583;DHT22;48641;51.676;5.808;2023-05-10T16:08:22;18.60;68.50
62583;DHT22;48641;51.676;5.808;2023-05-10T16:10:49;18.60;68.50
62583;DHT22;48641;51.676;5.808;2023-05-10T16:13:15;18.60;68.50
62583;DHT22;48641;51.676;5.808;2023-05-10T16:15:41;18.60;68.50
62583;DHT22;48641;51.676;5.808;2023-05-10T16:18:07;18.60;68.50
62583;DHT22;48641;51.676;5.808;2023-05-10T16:20:33;18.50;68.50
62583;DHT22;48641;51.676;5.808;2023-05-10T16:23:03;18.60;68.60
62583;DHT22;48641;51.676;5.808;2023-05-10T16:25:29;18.60;68.60
62583;DHT22;48641;51.676;5.808;2023-05-10T16:27:55;18.50;68.60
62583;DHT22;48641;51.676;5.808;2023-05-10T16:30:20;18.50;68.60
62583;DHT22;48641;51.676;5.808;2023-05-10T16:32:46;18.50;68.60
62583;DHT22;48641;51.676;5.808;2023-05-10T16:35:12;18.60;68.70
62583;DHT22;48641;51.676;5.808;2023-05-10T16:37:37;18.50;68.60
62583;DHT22;48641;51.676;5.808;2023-05-10T16:40:03;18.50;68.60
62583;DHT22;48641;51.676;5.808;2023-05-10T16:42:29;18.60;68.70
62583;DHT22;48641;51.676;5.808;2023-05-10T16:44:55;18.50;68.70
62583;DHT22;48641;51.676;5.808;2023-05-10T16:47:20;18.50;68.70
62583;DHT22;48641;51.676;5.808;2023-05-10T16:49:46;18.50;68.70
62583;DHT22;48641;51.676;5.808;2023-05-10T16:52:11;18.50;68.70
62583;DHT22;48641;51.676;5.808;2023-05-10T16:54:38;18.50;68.70
62583;DHT22;48641;51.676;5.808;2023-05-10T16:57:03;18.50;68.70
62583;DHT22;48641;51.676;5.808;2023-05-10T16:59:29;18.50;68.70
62583;DHT22;48641;51.676;5.808;2023-05-10T17:01:54;18.50;68.70
62583;DHT22;48641;51.676;5.808;2023-05-10T17:04:20;18.50;68.70
62583;DHT22;48641;51.676;5.808;2023-05-10T17:06:45;18.50;68.70
62583;DHT22;48641;51.676;5.808;2023-05-10T17:09:11;18.50;68.60
62583;DHT22;48641;51.676;5.808;2023-05-10T17:11:37;18.50;68.60
62583;DHT22;48641;51.676;5.808;2023-05-10T17:14:02;18.50;68.60
62583;DHT22;48641;51.676;5.808;2023-05-10T17:16:28;18.50;68.60
62583;DHT22;48641;51.676;5.808;2023-05-10T17:18:54;18.50;68.60
62583;DHT22;48641;51.676;5.808;2023-05-10T17:21:19;18.50;68.60
62583;DHT22;48641;51.676;5.808;2023-05-10T17:23:45;18.50;68.60
62583;DHT22;48641;51.676;5.808;2023-05-10T17:26:11;18.50;68.60
62583;DHT22;48641;51.676;5.808;2023-05-10T17:28:42;18.50;68.70
62583;DHT22;48641;51.676;5.808;2023-05-10T17:31:08;18.50;68.60
62583;DHT22;48641;51.676;5.808;2023-05-10T17:33:34;18.50;68.60
62583;DHT22;48641;51.676;5.808;2023-05-10T17:36:00;18.50;68.60
62583;DHT22;48641;51.676;5.808;2023-05-10T17:38:25;18.50;68.60
62583;DHT22;48641;51.676;5.808;2023-05-10T17:40:51;18.50;68.60
62583;DHT22;48641;51.676;5.808;2023-05-10T17:43:18;18.60;68.60
62583;DHT22;48641;51.676;5.808;2023-05-10T17:45:47;18.50;68.60
62583;DHT22;48641;51.676;5.808;2023-05-10T17:48:13;18.50;68.60
62583;DHT22;48641;51.676;5.808;2023-05-10T17:50:41;18.50;68.70
62583;DHT22;48641;51.676;5.808;2023-05-10T17:53:07;18.50;68.60
62583;DHT22;48641;51.676;5.808;2023-05-10T17:55:33;18.50;68.60
62583;DHT22;48641;51.676;5.808;2023-05-10T17:57:59;18.50;68.60
62583;DHT22;48641;51.676;5.808;2023-05-10T18:00:25;18.50;68.60
62583;DHT22;48641;51.676;5.808;2023-05-10T18:02:50;18.50;68.60
62583;DHT22;48641;51.676;5.808;2023-05-10T18:05:16;18.50;68.60
62583;DHT22;48641;51.676;5.808;2023-05-10T18:07:42;18.50;68.80
62583;DHT22;48641;51.676;5.808;2023-05-10T18:10:09;18.50;68.70
62583;DHT22;48641;51.676;5.808;2023-05-10T18:12:34;18.50;68.70
62583;DHT22;48641;51.676;5.808;2023-05-10T18:15:00;18.50;68.60
62583;DHT22;48641;51.676;5.808;2023-05-10T18:17:26;18.50;68.70
62583;DHT22;48641;51.676;5.808;2023-05-10T18:19:52;18.50;68.60
62583;DHT22;48641;51.676;5.808;2023-05-10T18:22:17;18.50;68.60
62583;DHT22;48641;51.676;5.808;2023-05-10T18:24:43;18.50;68.60
62583;DHT22;48641;51.676;5.808;2023-05-10T18:27:08;18.50;68.60
62583;DHT22;48641;51.676;5.808;2023-05-10T18:29:34;18.50;68.60
62583;DHT22;48641;51.676;5.808;2023-05-10T18:32:01;18.50;68.60
62583;DHT22;48641;51.676;5.808;2023-05-10T18:34:26;18.50;68.60
62583;DHT22;48641;51.676;5.808;2023-05-10T18:36:53;18.50;68.60
62583;DHT22;48641;51.676;5.808;2023-05-10T18:39:18;18.50;68.60
62583;DHT22;48641;51.676;5.808;2023-05-10T18:41:44;18.50;68.60
62583;DHT22;48641;51.676;5.808;2023-05-10T18:44:10;18.50;68.60
62583;DHT22;48641;51.676;5.808;2023-05-10T18:46:36;18.50;68.60
62583;DHT22;48641;51.676;5.808;2023-05-10T18:49:02;18.50;68.60
62583;DHT22;48641;51.676;5.808;2023-05-10T18:51:32;18.50;68.50
62583;DHT22;48641;51.676;5.808;2023-05-10T18:53:58;18.50;68.50
62583;DHT22;48641;51.676;5.808;2023-05-10T18:56:23;18.50;68.50